sensor_id;sensor_type;location;lat;lon;timestamp;temperature;humidity
53274;DHT22;39163;52.696;6.758;2022-07-01T00:00:47;15.30;99.90
53274;DHT22;39163;52.696;6.758;2022-07-01T00:03:13;15.30;99.90
53274;DHT22;39163;52.696;6.758;2022-07-01T00:05:39;15.30;99.90
53274;DHT22;39163;52.696;6.758;2022-07-01T00:08:05;15.30;99.90
53274;DHT22;39163;52.696;6.758;2022-07-01T00:10:31;15.40;99.90
53274;DHT22;39163;52.696;6.758;2022-07-01T00:12:56;15.40;99.90
53274;DHT22;39163;52.696;6.758;2022-07-01T00:15:30;15.40;99.90
53274;DHT22;39163;52.696;6.758;2022-07-01T00:18:04;15.40;99.90
53274;DHT22;39163;52.696;6.758;2022-07-01T00:20:30;15.40;99.90
53274;DHT22;39163;52.696;6.758;2022-07-01T00:22:56;15.40;99.90
53274;DHT22;39163;52.696;6.758;2022-07-01T00:25:22;15.50;99.90
53274;DHT22;39163;52.696;6.758;2022-07-01T00:27:47;15.50;99.90
53274;DHT22;39163;52.696;6.758;2022-07-01T00:30:13;15.50;99.90
53274;DHT22;39163;52.696;6.758;2022-07-01T00:32:40;15.50;99.90
53274;DHT22;39163;52.696;6.758;2022-07-01T00:35:06;15.50;99.90
53274;DHT22;39163;52.696;6.758;2022-07-01T00:37:32;15.50;99.90
53274;DHT22;39163;52.696;6.758;2022-07-01T00:39:57;15.50;99.90
53274;DHT22;39163;52.696;6.758;2022-07-01T00:42:23;15.50;99.90
53274;DHT22;39163;52.696;6.758;2022-07-01T00:44:49;15.40;99.90
53274;DHT22;39163;52.696;6.758;2022-07-01T00:47:15;15.40;99.90
53274;DHT22;39163;52.696;6.758;2022-07-01T00:49:41;15.40;99.90
53274;DHT22;39163;52.696;6.758;2022-07-01T00:52:08;15.40;99.90
53274;DHT22;39163;52.696;6.758;2022-07-01T00:54:36;15.40;99.90
53274;DHT22;39163;52.696;6.758;2022-07-01T00:57:09;15.40;99.90
53274;DHT22;39163;52.696;6.758;2022-07-01T00:59:39;15.30;99.90
53274;DHT22;39163;52.696;6.758;2022-07-01T01:02:06;15.30;99.90
53274;DHT22;39163;52.696;6.758;2022-07-01T01:04:42;15.30;99.90
53274;DHT22;39163;52.696;6.758;2022-07-01T01:07:11;15.20;99.90
53274;DHT22;39163;52.696;6.758;2022-07-01T01:09:40;15.20;99.90
53274;DHT22;39163;52.696;6.758;2022-07-01T01:12:08;15.20;99.90
53274;DHT22;39163;52.696;6.758;2022-07-01T01:14:47;15.20;99.90
53274;DHT22;39163;52.696;6.758;2022-07-01T01:17:14;15.20;99.90
53274;DHT22;39163;52.696;6.758;2022-07-01T01:19:42;15.20;99.90
53274;DHT22;39163;52.696;6.758;2022-07-01T01:22:09;15.20;99.90
53274;DHT22;39163;52.696;6.758;2022-07-01T01:24:41;15.30;99.90
53274;DHT22;39163;52.696;6.758;2022-07-01T01:27:08;15.30;99.90
53274;DHT22;39163;52.696;6.758;2022-07-01T01:29:35;15.30;99.90
53274;DHT22;39163;52.696;6.758;2022-07-01T01:32:02;15.40;99.90
53274;DHT22;39163;52.696;6.758;2022-07-01T01:34:28;15.40;99.90
53274;DHT22;39163;52.696;6.758;2022-07-01T01:36:54;15.40;99.90
53274;DHT22;39163;52.696;6.758;2022-07-01T01:39:20;15.40;99.90
53274;DHT22;39163;52.696;6.758;2022-07-01T01:41:46;15.50;99.90
53274;DHT22;39163;52.696;6.758;2022-07-01T01:44:12;15.50;99.90
53274;DHT22;39163;52.696;6.758;2022-07-01T01:46:38;15.50;99.90
53274;DHT22;39163;52.696;6.758;2022-07-01T01:49:05;15.50;99.90
53274;DHT22;39163;52.696;6.758;2022-07-01T01:51:31;15.50;99.90
53274;DHT22;39163;52.696;6.758;2022-07-01T01:53:57;15.50;99.90
53274;DHT22;39163;52.696;6.758;2022-07-01T01:56:23;15.40;99.90
53274;DHT22;39163;52.696;6.758;2022-07-01T01:58:49;15.40;99.90
53274;DHT22;39163;52.696;6.758;2022-07-01T02:01:16;15.40;99.90
53274;DHT22;39163;52.696;6.758;2022-07-01T02:03:43;15.50;99.90
53274;DHT22;39163;52.696;6.758;2022-07-01T02:06:09;15.50;99.90
53274;DHT22;39163;52.696;6.758;2022-07-01T02:08:37;15.50;99.90
53274;DHT22;39163;52.696;6.758;2022-07-01T02:11:03;15.50;99.90
53274;DHT22;39163;52.696;6.758;2022-07-01T02:13:29;15.50;99.90
53274;DHT22;39163;52.696;6.758;2022-07-01T02:15:55;15.50;99.90
53274;DHT22;39163;52.696;6.758;2022-07-01T02:18:22;15.50;99.90
53274;DHT22;39163;52.696;6.758;2022-07-01T02:20:48;15.40;99.90
53274;DHT22;39163;52.696;6.758;2022-07-01T02:23:14;15.40;99.90
53274;DHT22;39163;52.696;6.758;2022-07-01T02:25:41;15.40;99.90
53274;DHT22;39163;52.696;6.758;2022-07-01T02:28:07;15.40;99.90
53274;DHT22;39163;52.696;6.758;2022-07-01T02:30:34;15.30;99.90
53274;DHT22;39163;52.696;6.758;2022-07-01T02:33:05;15.30;99.90
53274;DHT22;39163;52.696;6.758;2022-07-01T02:35:41;15.30;99.90
53274;DHT22;39163;52.696;6.758;2022-07-01T02:38:07;15.30;99.90
53274;DHT22;39163;52.696;6.758;2022-07-01T02:40:34;15.30;99.90
53274;DHT22;39163;52.696;6.758;2022-07-01T02:43:03;15.40;99.90
53274;DHT22;39163;52.696;6.758;2022-07-01T02:45:29;15.30;99.90
53274;DHT22;39163;52.696;6.758;2022-07-01T02:47:54;15.30;99.90
53274;DHT22;39163;52.696;6.758;2022-07-01T02:50:20;15.20;99.90
53274;DHT22;39163;52.696;6.758;2022-07-01T02:52:46;15.20;99.90
53274;DHT22;39163;52.696;6.758;2022-07-01T02:55:13;15.20;99.90
53274;DHT22;39163;52.696;6.758;2022-07-01T02:57:40;15.20;99.90
53274;DHT22;39163;52.696;6.758;2022-07-01T03:00:08;15.10;99.90
53274;DHT22;39163;52.696;6.758;2022-07-01T03:02:34;15.10;99.90
53274;DHT22;39163;52.696;6.758;2022-07-01T03:05:00;15.10;99.90
53274;DHT22;39163;52.696;6.758;2022-07-01T03:07:26;15.00;99.90
53274;DHT22;39163;52.696;6.758;2022-07-01T03:09:55;15.00;99.90
53274;DHT22;39163;52.696;6.758;2022-07-01T03:12:21;15.00;99.90
53274;DHT22;39163;52.696;6.758;2022-07-01T03:17:33;15.00;99.90
53274;DHT22;39163;52.696;6.758;2022-07-01T03:20:00;14.90;99.90
53274;DHT22;39163;52.696;6.758;2022-07-01T03:22:28;14.90;99.90
53274;DHT22;39163;52.696;6.758;2022-07-01T03:24:54;15.00;99.90
53274;DHT22;39163;52.696;6.758;2022-07-01T03:27:23;14.90;99.90
53274;DHT22;39163;52.696;6.758;2022-07-01T03:29:50;14.90;99.90
53274;DHT22;39163;52.696;6.758;2022-07-01T03:32:16;14.90;99.90
53274;DHT22;39163;52.696;6.758;2022-07-01T03:34:52;14.90;99.90
53274;DHT22;39163;52.696;6.758;2022-07-01T03:37:20;14.90;99.90
53274;DHT22;39163;52.696;6.758;2022-07-01T03:39:49;14.90;99.90
53274;DHT22;39163;52.696;6.758;2022-07-01T03:42:15;14.80;99.90
53274;DHT22;39163;52.696;6.758;2022-07-01T03:44:46;14.80;99.90
53274;DHT22;39163;52.696;6.758;2022-07-01T03:47:12;14.70;99.90
53274;DHT22;39163;52.696;6.758;2022-07-01T03:49:38;14.70;99.90
53274;DHT22;39163;52.696;6.758;2022-07-01T03:52:07;14.70;99.90
53274;DHT22;39163;52.696;6.758;2022-07-01T03:54:43;14.70;99.90
53274;DHT22;39163;52.696;6.758;2022-07-01T03:57:14;14.60;99.90
53274;DHT22;39163;52.696;6.758;2022-07-01T03:59:45;14.70;99.90
53274;DHT22;39163;52.696;6.758;2022-07-01T04:02:15;14.70;99.90
53274;DHT22;39163;52.696;6.758;2022-07-01T04:04:43;14.60;99.90
53274;DHT22;39163;52.696;6.758;2022-07-01T04:07:15;14.60;99.90
53274;DHT22;39163;52.696;6.758;2022-07-01T04:09:41;14.60;99.90
53274;DHT22;39163;52.696;6.758;2022-07-01T04:12:10;14.60;99.90
53274;DHT22;39163;52.696;6.758;2022-07-01T04:14:47;14.60;99.90
53274;DHT22;39163;52.696;6.758;2022-07-01T04:17:12;14.60;99.90
53274;DHT22;39163;52.696;6.758;2022-07-01T04:19:41;14.60;99.90
53274;DHT22;39163;52.696;6.758;2022-07-01T04:22:06;14.60;99.90
53274;DHT22;39163;52.696;6.758;2022-07-01T04:24:54;14.60;99.90
53274;DHT22;39163;52.696;6.758;2022-07-01T04:27:19;14.60;99.90
53274;DHT22;39163;52.696;6.758;2022-07-01T04:29:45;14.60;99.90
53274;DHT22;39163;52.696;6.758;2022-07-01T04:32:11;14.60;99.90
53274;DHT22;39163;52.696;6.758;2022-07-01T04:34:39;14.60;99.90
53274;DHT22;39163;52.696;6.758;2022-07-01T04:37:05;14.60;99.90
53274;DHT22;39163;52.696;6.758;2022-07-01T04:39:31;14.60;99.90
53274;DHT22;39163;52.696;6.758;2022-07-01T04:41:56;14.70;99.90
53274;DHT22;39163;52.696;6.758;2022-07-01T04:44:36;14.60;99.90
53274;DHT22;39163;52.696;6.758;2022-07-01T04:47:09;14.60;99.90
53274;DHT22;39163;52.696;6.758;2022-07-01T04:49:38;14.60;99.90
53274;DHT22;39163;52.696;6.758;2022-07-01T05:54:29;15.00;99.90
53274;DHT22;39163;52.696;6.758;2022-07-01T05:56:58;15.00;99.90
53274;DHT22;39163;52.696;6.758;2022-07-01T05:59:24;15.00;99.90
53274;DHT22;39163;52.696;6.758;2022-07-01T06:01:50;15.00;99.90
53274;DHT22;39163;52.696;6.758;2022-07-01T06:04:16;14.90;99.90
53274;DHT22;39163;52.696;6.758;2022-07-01T06:06:42;15.00;99.90
53274;DHT22;39163;52.696;6.758;2022-07-01T06:09:17;15.10;99.90
53274;DHT22;39163;52.696;6.758;2022-07-01T06:11:42;15.20;99.90
53274;DHT22;39163;52.696;6.758;2022-07-01T06:14:08;15.30;99.90
53274;DHT22;39163;52.696;6.758;2022-07-01T06:16:34;15.40;99.90
53274;DHT22;39163;52.696;6.758;2022-07-01T06:19:00;15.50;99.90
53274;DHT22;39163;52.696;6.758;2022-07-01T06:21:26;15.50;99.90
53274;DHT22;39163;52.696;6.758;2022-07-01T06:23:51;15.60;99.90
53274;DHT22;39163;52.696;6.758;2022-07-01T06:26:17;15.50;99.90
53274;DHT22;39163;52.696;6.758;2022-07-01T06:28:43;15.60;99.90
53274;DHT22;39163;52.696;6.758;2022-07-01T06:31:09;15.70;99.90
53274;DHT22;39163;52.696;6.758;2022-07-01T06:33:34;15.80;99.90
53274;DHT22;39163;52.696;6.758;2022-07-01T06:36:00;16.00;99.90
53274;DHT22;39163;52.696;6.758;2022-07-01T06:38:26;16.00;99.90
53274;DHT22;39163;52.696;6.758;2022-07-01T06:40:51;16.00;99.90
53274;DHT22;39163;52.696;6.758;2022-07-01T06:43:36;16.00;99.90
53274;DHT22;39163;52.696;6.758;2022-07-01T06:46:02;15.90;99.90
53274;DHT22;39163;52.696;6.758;2022-07-01T06:48:29;15.80;99.90
53274;DHT22;39163;52.696;6.758;2022-07-01T06:50:55;15.60;99.90
53274;DHT22;39163;52.696;6.758;2022-07-01T06:53:21;15.60;99.90
53274;DHT22;39163;52.696;6.758;2022-07-01T06:55:47;15.60;99.90
53274;DHT22;39163;52.696;6.758;2022-07-01T06:58:13;15.50;99.90
53274;DHT22;39163;52.696;6.758;2022-07-01T07:00:39;15.50;99.90
53274;DHT22;39163;52.696;6.758;2022-07-01T07:03:04;15.50;99.90
53274;DHT22;39163;52.696;6.758;2022-07-01T07:05:30;15.50;99.90
53274;DHT22;39163;52.696;6.758;2022-07-01T07:07:57;15.60;99.90
53274;DHT22;39163;52.696;6.758;2022-07-01T07:10:23;15.60;99.90
53274;DHT22;39163;52.696;6.758;2022-07-01T07:12:49;15.70;99.90
53274;DHT22;39163;52.696;6.758;2022-07-01T07:15:15;15.60;99.90
53274;DHT22;39163;52.696;6.758;2022-07-01T07:17:41;15.50;99.90
53274;DHT22;39163;52.696;6.758;2022-07-01T07:20:07;15.60;99.90
53274;DHT22;39163;52.696;6.758;2022-07-01T07:22:33;15.70;99.90
53274;DHT22;39163;52.696;6.758;2022-07-01T07:24:59;15.80;99.90
53274;DHT22;39163;52.696;6.758;2022-07-01T07:27:25;15.90;99.90
53274;DHT22;39163;52.696;6.758;2022-07-01T07:29:50;16.20;99.90
53274;DHT22;39163;52.696;6.758;2022-07-01T07:32:16;16.50;99.90
53274;DHT22;39163;52.696;6.758;2022-07-01T07:34:42;16.60;99.90
53274;DHT22;39163;52.696;6.758;2022-07-01T07:37:08;16.60;99.90
53274;DHT22;39163;52.696;6.758;2022-07-01T07:39:34;16.50;99.90
53274;DHT22;39163;52.696;6.758;2022-07-01T07:42:00;16.60;99.90
53274;DHT22;39163;52.696;6.758;2022-07-01T07:44:26;17.20;99.90
53274;DHT22;39163;52.696;6.758;2022-07-01T07:46:52;17.40;99.90
53274;DHT22;39163;52.696;6.758;2022-07-01T07:49:18;17.50;99.90
53274;DHT22;39163;52.696;6.758;2022-07-01T07:51:43;17.70;99.90
53274;DHT22;39163;52.696;6.758;2022-07-01T07:54:12;17.70;99.90
53274;DHT22;39163;52.696;6.758;2022-07-01T07:56:41;17.70;99.90
53274;DHT22;39163;52.696;6.758;2022-07-01T07:59:06;17.60;99.90
53274;DHT22;39163;52.696;6.758;2022-07-01T08:01:32;17.60;99.90
53274;DHT22;39163;52.696;6.758;2022-07-01T08:03:58;17.60;99.90
53274;DHT22;39163;52.696;6.758;2022-07-01T08:06:24;17.80;99.90
53274;DHT22;39163;52.696;6.758;2022-07-01T08:08:49;17.60;99.90
53274;DHT22;39163;52.696;6.758;2022-07-01T08:11:16;18.30;99.90
53274;DHT22;39163;52.696;6.758;2022-07-01T08:13:42;18.60;99.90
53274;DHT22;39163;52.696;6.758;2022-07-01T08:16:09;18.50;99.90
53274;DHT22;39163;52.696;6.758;2022-07-01T08:18:35;18.40;99.90
53274;DHT22;39163;52.696;6.758;2022-07-01T08:21:01;18.50;99.90
53274;DHT22;39163;52.696;6.758;2022-07-01T08:23:27;19.00;99.90
53274;DHT22;39163;52.696;6.758;2022-07-01T08:25:52;19.30;99.90
53274;DHT22;39163;52.696;6.758;2022-07-01T08:28:18;19.30;99.90
53274;DHT22;39163;52.696;6.758;2022-07-01T08:30:44;19.30;99.90
53274;DHT22;39163;52.696;6.758;2022-07-01T08:33:10;19.30;99.90
53274;DHT22;39163;52.696;6.758;2022-07-01T08:35:36;19.50;99.90
53274;DHT22;39163;52.696;6.758;2022-07-01T08:38:03;19.80;99.90
53274;DHT22;39163;52.696;6.758;2022-07-01T08:40:30;19.80;99.90
53274;DHT22;39163;52.696;6.758;2022-07-01T08:43:04;20.00;99.90
53274;DHT22;39163;52.696;6.758;2022-07-01T08:45:32;20.70;99.90
53274;DHT22;39163;52.696;6.758;2022-07-01T08:47:59;21.30;99.90
53274;DHT22;39163;52.696;6.758;2022-07-01T08:50:36;21.10;99.90
53274;DHT22;39163;52.696;6.758;2022-07-01T08:53:03;21.10;99.90
53274;DHT22;39163;52.696;6.758;2022-07-01T08:55:29;20.70;99.90
53274;DHT22;39163;52.696;6.758;2022-07-01T08:57:55;20.70;99.90
53274;DHT22;39163;52.696;6.758;2022-07-01T09:00:33;20.90;99.90
53274;DHT22;39163;52.696;6.758;2022-07-01T09:03:01;20.80;99.90
53274;DHT22;39163;52.696;6.758;2022-07-01T09:05:29;20.70;99.90
53274;DHT22;39163;52.696;6.758;2022-07-01T09:08:04;20.90;99.90
53274;DHT22;39163;52.696;6.758;2022-07-01T09:10:31;20.80;99.90
53274;DHT22;39163;52.696;6.758;2022-07-01T09:13:09;20.60;99.90
53274;DHT22;39163;52.696;6.758;2022-07-01T09:15:37;20.40;99.90
53274;DHT22;39163;52.696;6.758;2022-07-01T09:18:14;20.00;99.90
53274;DHT22;39163;52.696;6.758;2022-07-01T09:20:47;20.00;99.90
53274;DHT22;39163;52.696;6.758;2022-07-01T09:23:18;20.10;99.90
53274;DHT22;39163;52.696;6.758;2022-07-01T09:25:45;20.00;99.90
53274;DHT22;39163;52.696;6.758;2022-07-01T09:28:21;19.90;99.90
53274;DHT22;39163;52.696;6.758;2022-07-01T09:30:51;19.80;99.90
53274;DHT22;39163;52.696;6.758;2022-07-01T09:33:27;19.80;99.90
53274;DHT22;39163;52.696;6.758;2022-07-01T09:35:54;19.90;99.90
53274;DHT22;39163;52.696;6.758;2022-07-01T09:38:22;19.80;99.90
53274;DHT22;39163;52.696;6.758;2022-07-01T09:40:56;19.80;99.90
53274;DHT22;39163;52.696;6.758;2022-07-01T09:43:23;19.70;99.90
53274;DHT22;39163;52.696;6.758;2022-07-01T09:45:55;19.70;99.90
53274;DHT22;39163;52.696;6.758;2022-07-01T09:48:26;19.70;99.90
53274;DHT22;39163;52.696;6.758;2022-07-01T09:50:52;19.50;99.90
53274;DHT22;39163;52.696;6.758;2022-07-01T09:53:19;19.50;99.90
53274;DHT22;39163;52.696;6.758;2022-07-01T09:55:45;19.50;99.90
53274;DHT22;39163;52.696;6.758;2022-07-01T09:58:11;19.80;99.90
53274;DHT22;39163;52.696;6.758;2022-07-01T10:00:41;20.10;99.90
53274;DHT22;39163;52.696;6.758;2022-07-01T10:03:10;20.20;99.90
53274;DHT22;39163;52.696;6.758;2022-07-01T10:05:56;20.20;99.90
53274;DHT22;39163;52.696;6.758;2022-07-01T10:14:29;20.10;99.90
53274;DHT22;39163;52.696;6.758;2022-07-01T10:16:55;20.30;99.90
53274;DHT22;39163;52.696;6.758;2022-07-01T10:21:53;20.50;99.90
53274;DHT22;39163;52.696;6.758;2022-07-01T10:24:23;20.70;99.90
53274;DHT22;39163;52.696;6.758;2022-07-01T10:26:49;21.00;99.90
53274;DHT22;39163;52.696;6.758;2022-07-01T10:29:35;21.30;99.90
53274;DHT22;39163;52.696;6.758;2022-07-01T10:32:10;21.40;99.90
53274;DHT22;39163;52.696;6.758;2022-07-01T10:34:40;21.40;99.90
53274;DHT22;39163;52.696;6.758;2022-07-01T10:37:10;21.30;99.90
53274;DHT22;39163;52.696;6.758;2022-07-01T10:40:00;21.30;99.90
53274;DHT22;39163;52.696;6.758;2022-07-01T10:42:34;21.20;99.90
53274;DHT22;39163;52.696;6.758;2022-07-01T10:45:09;21.10;99.90
53274;DHT22;39163;52.696;6.758;2022-07-01T10:47:35;21.20;99.90
53274;DHT22;39163;52.696;6.758;2022-07-01T10:50:11;21.10;99.90
53274;DHT22;39163;52.696;6.758;2022-07-01T10:52:38;21.50;99.90
53274;DHT22;39163;52.696;6.758;2022-07-01T10:55:08;21.90;99.90
53274;DHT22;39163;52.696;6.758;2022-07-01T10:57:38;22.10;99.90
53274;DHT22;39163;52.696;6.758;2022-07-01T11:02:35;22.30;99.90
53274;DHT22;39163;52.696;6.758;2022-07-01T11:05:13;22.30;99.40
53274;DHT22;39163;52.696;6.758;2022-07-01T11:07:45;22.40;99.90
53274;DHT22;39163;52.696;6.758;2022-07-01T11:10:13;22.60;99.90
53274;DHT22;39163;52.696;6.758;2022-07-01T11:12:41;22.80;99.90
53274;DHT22;39163;52.696;6.758;2022-07-01T11:15:10;22.80;98.90
53274;DHT22;39163;52.696;6.758;2022-07-01T11:17:44;23.00;99.90
53274;DHT22;39163;52.696;6.758;2022-07-01T11:20:10;23.30;99.90
53274;DHT22;39163;52.696;6.758;2022-07-01T11:22:36;23.50;98.40
53274;DHT22;39163;52.696;6.758;2022-07-01T11:25:05;23.50;98.30
53274;DHT22;39163;52.696;6.758;2022-07-01T11:27:32;23.10;95.70
53274;DHT22;39163;52.696;6.758;2022-07-01T11:30:05;22.60;98.00
53274;DHT22;39163;52.696;6.758;2022-07-01T11:32:37;22.50;98.50
53274;DHT22;39163;52.696;6.758;2022-07-01T11:35:04;22.50;99.80
53274;DHT22;39163;52.696;6.758;2022-07-01T11:40:58;22.20;99.50
53274;DHT22;39163;52.696;6.758;2022-07-01T11:43:32;22.20;99.90
53274;DHT22;39163;52.696;6.758;2022-07-01T11:46:00;22.40;98.30
53274;DHT22;39163;52.696;6.758;2022-07-01T11:48:47;22.70;99.30
53274;DHT22;39163;52.696;6.758;2022-07-01T11:51:22;22.90;99.90
53274;DHT22;39163;52.696;6.758;2022-07-01T11:54:20;22.80;95.60
53274;DHT22;39163;52.696;6.758;2022-07-01T11:56:50;22.40;96.20
53274;DHT22;39163;52.696;6.758;2022-07-01T11:59:17;22.40;98.70
53274;DHT22;39163;52.696;6.758;2022-07-01T12:01:54;22.40;98.40
53274;DHT22;39163;52.696;6.758;2022-07-01T12:04:21;22.60;99.80
53274;DHT22;39163;52.696;6.758;2022-07-01T12:06:47;22.40;98.60
53274;DHT22;39163;52.696;6.758;2022-07-01T12:09:18;22.40;99.60
53274;DHT22;39163;52.696;6.758;2022-07-01T12:11:50;22.20;99.30
53274;DHT22;39163;52.696;6.758;2022-07-01T12:14:24;22.10;99.90
53274;DHT22;39163;52.696;6.758;2022-07-01T12:16:56;22.00;99.90
53274;DHT22;39163;52.696;6.758;2022-07-01T12:19:38;22.30;99.70
53274;DHT22;39163;52.696;6.758;2022-07-01T12:22:12;22.70;96.70
53274;DHT22;39163;52.696;6.758;2022-07-01T12:24:46;23.20;97.80
53274;DHT22;39163;52.696;6.758;2022-07-01T12:27:13;23.60;98.20
53274;DHT22;39163;52.696;6.758;2022-07-01T12:32:16;23.60;95.10
53274;DHT22;39163;52.696;6.758;2022-07-01T12:34:51;23.50;96.50
53274;DHT22;39163;52.696;6.758;2022-07-01T12:40:07;23.60;93.40
53274;DHT22;39163;52.696;6.758;2022-07-01T12:42:43;23.60;94.60
53274;DHT22;39163;52.696;6.758;2022-07-01T12:45:12;23.60;93.70
53274;DHT22;39163;52.696;6.758;2022-07-01T12:47:46;23.90;95.30
53274;DHT22;39163;52.696;6.758;2022-07-01T13:44:11;23.90;90.90
53274;DHT22;39163;52.696;6.758;2022-07-01T13:46:37;24.20;93.10
53274;DHT22;39163;52.696;6.758;2022-07-01T13:49:03;24.60;93.40
53274;DHT22;39163;52.696;6.758;2022-07-01T13:51:29;24.60;91.00
53274;DHT22;39163;52.696;6.758;2022-07-01T13:53:55;25.00;90.60
53274;DHT22;39163;52.696;6.758;2022-07-01T13:56:24;25.00;88.40
53274;DHT22;39163;52.696;6.758;2022-07-01T13:58:51;24.60;84.90
53274;DHT22;39163;52.696;6.758;2022-07-01T14:01:18;24.20;88.10
53274;DHT22;39163;52.696;6.758;2022-07-01T14:03:44;23.80;87.00
53274;DHT22;39163;52.696;6.758;2022-07-01T14:06:09;23.60;89.00
53274;DHT22;39163;52.696;6.758;2022-07-01T14:08:35;23.50;91.10
53274;DHT22;39163;52.696;6.758;2022-07-01T14:11:01;23.30;91.40
53274;DHT22;39163;52.696;6.758;2022-07-01T14:13:27;23.40;93.40
53274;DHT22;39163;52.696;6.758;2022-07-01T14:15:55;23.40;93.90
53274;DHT22;39163;52.696;6.758;2022-07-01T14:18:21;23.40;92.30
53274;DHT22;39163;52.696;6.758;2022-07-01T14:20:49;23.40;91.90
53274;DHT22;39163;52.696;6.758;2022-07-01T14:23:15;23.60;92.30
53274;DHT22;39163;52.696;6.758;2022-07-01T14:25:47;23.90;90.60
53274;DHT22;39163;52.696;6.758;2022-07-01T14:28:13;24.10;88.30
53274;DHT22;39163;52.696;6.758;2022-07-01T14:30:41;24.40;88.80
53274;DHT22;39163;52.696;6.758;2022-07-01T14:33:06;24.20;86.60
53274;DHT22;39163;52.696;6.758;2022-07-01T14:35:32;23.80;87.10
53274;DHT22;39163;52.696;6.758;2022-07-01T14:37:58;23.60;89.00
53274;DHT22;39163;52.696;6.758;2022-07-01T14:40:24;23.20;87.80
53274;DHT22;39163;52.696;6.758;2022-07-01T14:42:52;23.00;90.80
53274;DHT22;39163;52.696;6.758;2022-07-01T14:45:19;22.90;91.80
53274;DHT22;39163;52.696;6.758;2022-07-01T14:47:45;22.80;91.80
53274;DHT22;39163;52.696;6.758;2022-07-01T14:50:17;22.60;92.20
53274;DHT22;39163;52.696;6.758;2022-07-01T14:52:46;22.50;92.00
53274;DHT22;39163;52.696;6.758;2022-07-01T14:55:12;22.50;91.60
53274;DHT22;39163;52.696;6.758;2022-07-01T14:57:38;22.90;90.40
53274;DHT22;39163;52.696;6.758;2022-07-01T15:00:05;23.50;90.30
53274;DHT22;39163;52.696;6.758;2022-07-01T15:02:31;23.90;86.20
53274;DHT22;39163;52.696;6.758;2022-07-01T15:04:56;24.00;86.20
53274;DHT22;39163;52.696;6.758;2022-07-01T15:07:22;24.10;90.00
53274;DHT22;39163;52.696;6.758;2022-07-01T15:09:51;24.00;83.60
53274;DHT22;39163;52.696;6.758;2022-07-01T15:12:18;23.60;82.70
53274;DHT22;39163;52.696;6.758;2022-07-01T15:14:44;23.50;88.90
53274;DHT22;39163;52.696;6.758;2022-07-01T15:17:13;23.30;84.40
53274;DHT22;39163;52.696;6.758;2022-07-01T15:19:39;23.00;85.10
53274;DHT22;39163;52.696;6.758;2022-07-01T15:22:06;22.60;83.90
53274;DHT22;39163;52.696;6.758;2022-07-01T15:24:37;22.50;86.90
53274;DHT22;39163;52.696;6.758;2022-07-01T15:27:03;22.50;88.60
53274;DHT22;39163;52.696;6.758;2022-07-01T15:29:30;22.80;86.00
53274;DHT22;39163;52.696;6.758;2022-07-01T15:31:56;22.80;83.10
53274;DHT22;39163;52.696;6.758;2022-07-01T15:34:23;22.70;81.40
53274;DHT22;39163;52.696;6.758;2022-07-01T15:36:48;22.60;80.80
53274;DHT22;39163;52.696;6.758;2022-07-01T15:39:15;22.60;84.90
53274;DHT22;39163;52.696;6.758;2022-07-01T15:41:42;22.70;90.10
53274;DHT22;39163;52.696;6.758;2022-07-01T15:44:10;22.70;88.40
53274;DHT22;39163;52.696;6.758;2022-07-01T15:46:36;22.90;88.80
53274;DHT22;39163;52.696;6.758;2022-07-01T15:49:03;22.80;86.80
53274;DHT22;39163;52.696;6.758;2022-07-01T15:51:29;22.40;89.00
53274;DHT22;39163;52.696;6.758;2022-07-01T15:53:55;22.00;90.10
53274;DHT22;39163;52.696;6.758;2022-07-01T15:56:27;21.80;92.30
53274;DHT22;39163;52.696;6.758;2022-07-01T15:58:53;21.80;92.30
53274;DHT22;39163;52.696;6.758;2022-07-01T16:01:19;21.80;92.50
53274;DHT22;39163;52.696;6.758;2022-07-01T16:03:47;22.10;92.90
53274;DHT22;39163;52.696;6.758;2022-07-01T16:06:14;22.40;93.50
53274;DHT22;39163;52.696;6.758;2022-07-01T16:08:46;22.50;93.00
53274;DHT22;39163;52.696;6.758;2022-07-01T16:11:15;22.50;92.60
53274;DHT22;39163;52.696;6.758;2022-07-01T16:13:48;22.30;93.00
53274;DHT22;39163;52.696;6.758;2022-07-01T16:16:25;22.30;93.20
53274;DHT22;39163;52.696;6.758;2022-07-01T16:18:52;22.40;93.00
53274;DHT22;39163;52.696;6.758;2022-07-01T16:21:19;22.60;92.90
53274;DHT22;39163;52.696;6.758;2022-07-01T16:23:52;22.70;88.70
53274;DHT22;39163;52.696;6.758;2022-07-01T16:26:22;22.60;89.40
53274;DHT22;39163;52.696;6.758;2022-07-01T16:28:49;22.50;85.20
53274;DHT22;39163;52.696;6.758;2022-07-01T16:31:16;22.60;84.10
53274;DHT22;39163;52.696;6.758;2022-07-01T16:33:42;22.60;82.70
53274;DHT22;39163;52.696;6.758;2022-07-01T16:43:52;22.80;85.60
53274;DHT22;39163;52.696;6.758;2022-07-01T16:46:21;23.00;86.30
53274;DHT22;39163;52.696;6.758;2022-07-01T16:48:50;22.90;85.90
53274;DHT22;39163;52.696;6.758;2022-07-01T16:51:17;22.70;86.40
53274;DHT22;39163;52.696;6.758;2022-07-01T16:53:45;22.50;87.50
53274;DHT22;39163;52.696;6.758;2022-07-01T16:56:23;22.20;88.70
53274;DHT22;39163;52.696;6.758;2022-07-01T16:59:01;22.00;90.30
53274;DHT22;39163;52.696;6.758;2022-07-01T17:01:28;21.80;90.50
53274;DHT22;39163;52.696;6.758;2022-07-01T17:03:55;21.70;90.30
53274;DHT22;39163;52.696;6.758;2022-07-01T17:06:22;21.70;91.60
53274;DHT22;39163;52.696;6.758;2022-07-01T17:08:49;21.80;91.90
53274;DHT22;39163;52.696;6.758;2022-07-01T17:11:17;22.10;91.80
53274;DHT22;39163;52.696;6.758;2022-07-01T17:13:46;22.20;92.30
53274;DHT22;39163;52.696;6.758;2022-07-01T17:16:13;22.30;92.00
53274;DHT22;39163;52.696;6.758;2022-07-01T17:18:39;22.40;92.30
53274;DHT22;39163;52.696;6.758;2022-07-01T17:21:05;22.30;92.10
53274;DHT22;39163;52.696;6.758;2022-07-01T17:23:43;22.20;90.70
53274;DHT22;39163;52.696;6.758;2022-07-01T17:26:12;22.20;92.90
53274;DHT22;39163;52.696;6.758;2022-07-01T17:31:35;22.30;91.50
53274;DHT22;39163;52.696;6.758;2022-07-01T17:34:04;22.50;92.40
53274;DHT22;39163;52.696;6.758;2022-07-01T17:36:33;22.60;91.90
53274;DHT22;39163;52.696;6.758;2022-07-01T17:41:39;22.70;91.10
53274;DHT22;39163;52.696;6.758;2022-07-01T17:44:10;22.60;92.50
53274;DHT22;39163;52.696;6.758;2022-07-01T17:46:41;22.40;90.80
53274;DHT22;39163;52.696;6.758;2022-07-01T17:49:17;22.10;90.60
53274;DHT22;39163;52.696;6.758;2022-07-01T17:51:43;21.80;92.00
53274;DHT22;39163;52.696;6.758;2022-07-01T17:54:13;21.60;91.70
53274;DHT22;39163;52.696;6.758;2022-07-01T17:56:40;21.50;93.10
53274;DHT22;39163;52.696;6.758;2022-07-01T17:59:06;21.30;93.70
53274;DHT22;39163;52.696;6.758;2022-07-01T18:01:34;21.10;94.40
53274;DHT22;39163;52.696;6.758;2022-07-01T18:04:01;20.90;94.30
53274;DHT22;39163;52.696;6.758;2022-07-01T18:06:28;20.80;95.70
53274;DHT22;39163;52.696;6.758;2022-07-01T18:08:54;20.70;96.20